EW1719 Weather Reports


time (UTC)temp
F
wind
direction
speed
knots
gust
knots
rain 1hr
in
rain 24hr
in
rain mn
in
humidity
%
barometer
mb
20260505153017 70 236 0.0 2.6 0.00 0.00 0.00 63 1015.8
20260505152504 71 360 1.7 4.3 0.00 0.00 0.00 63 1016.2
20260505151624 69 58 0.9 2.6 0.00 0.00 0.00 65 1015.8
20260505151604 70 59 0.9 2.6 0.00 0.00 0.00 65 1016.1
20260505150726 69 49 0.9 2.6 0.00 0.00 0.00 66 1016.0
20260505140405 64 299 0.9 1.7 0.00 0.00 0.00 70 1016.3
20260505130105 56 279 0.0 1.7 0.00 0.00 0.00 85 1016.5
20260505130103 56 279 0.0 1.7 0.00 0.00 0.00 85 1016.3
20260505124504 54 279 0.0 0.0 0.00 0.00 0.00 89 1015.9
20260505124305 55 0 0.0 0.0 0.00 0.00 0.00 90 1016.0
20260505123405 53 0 0.0 0.0 0.00 0.00 0.00 91 1015.9
20260505123009 52 279 0.0 0.0 0.00 0.00 0.00 91 1015.6
20260505122505 52 0 0.0 0.0 0.00 0.00 0.00 91 1015.9
20260505121605 51 279 0.0 1.7 0.00 0.00 0.00 91 1015.8
20260505121510 51 279 0.0 1.7 0.00 0.00 0.00 91 1015.5
20260505120705 51 279 0.0 0.9 0.00 0.00 0.00 91 1015.6
20260505120038 50 279 0.0 0.0 0.00 0.00 0.00 91 1015.3
20260505115826 51 0 0.0 0.0 0.00 0.00 0.00 91 1015.4
20260505114905 51 279 0.0 1.7 0.00 0.00 0.00 92 1015.5
20260505114602 50 279 0.0 0.9 0.00 0.00 0.00 92 1015.2
20260505114026 50 279 0.0 0.9 0.00 0.00 0.00 92 1015.3
20260505113105 50 279 0.0 0.9 0.00 0.00 0.00 91 1015.2
20260505113005 49 279 0.0 0.9 0.00 0.00 0.00 91 1015.0
20260505112226 49 279 0.0 0.9 0.00 0.00 0.00 91 1015.1
20260505111507 49 279 0.0 0.9 0.00 0.00 0.00 91 1014.7
20260505111305 49 279 0.0 0.9 0.00 0.00 0.00 91 1014.8
20260505110405 48 279 0.9 1.7 0.00 0.00 0.00 91 1014.8
20260505101926 49 279 0.0 1.7 0.00 0.00 0.00 91 1014.7
20260505101517 49 279 0.0 1.7 0.00 0.00 0.00 91 1014.4
20260505101005 49 278 0.0 1.7 0.00 0.00 0.00 91 1014.6
20260505100105 49 263 0.9 0.9 0.00 0.00 0.00 90 1014.5
20260505100020 48 275 0.0 0.9 0.00 0.00 0.00 90 1014.3
20260505095226 49 252 0.9 1.7 0.00 0.00 0.00 90 1014.4
20260505094515 48 248 0.0 1.7 0.00 0.00 0.00 90 1014.3
20260505094305 49 247 0.9 1.7 0.00 0.00 0.00 90 1014.5
20260505093426 49 249 0.0 1.7 0.00 0.00 0.00 90 1014.8
20260505093004 49 250 0.0 1.7 0.00 0.00 0.00 90 1014.6
20260505092505 49 251 0.0 0.9 0.00 0.00 0.00 90 1014.8
20260505091605 49 224 0.0 0.9 0.00 0.00 0.00 90 1014.8
20260505091524 49 246 0.0 1.7 0.00 0.00 0.00 90 1014.6
20260505090705 50 208 0.9 2.6 0.00 0.00 0.00 90 1014.6
20260505090010 50 208 0.0 2.6 0.00 0.00 0.00 90 1014.4
20260505085805 50 208 0.9 1.7 0.00 0.00 0.00 90 1014.4
20260505084905 50 208 0.0 1.7 0.00 0.00 0.00 90 1014.5
20260505084507 50 208 0.0 1.7 0.00 0.00 0.00 90 1014.4
20260505084005 50 208 0.9 1.7 0.00 0.00 0.00 90 1014.8
20260505083105 51 207 0.0 1.7 0.00 0.00 0.00 90 1014.8
20260505083014 50 207 0.0 1.7 0.00 0.00 0.00 90 1014.6
20260505082205 51 207 0.9 1.7 0.00 0.00 0.00 90 1014.7
20260505081514 50 207 0.0 1.7 0.00 0.00 0.00 90 1014.5
20260505081305 51 207 0.9 1.7 0.00 0.00 0.00 90 1014.7
20260505080405 51 207 0.0 1.7 0.00 0.00 0.00 90 1014.7
20260505080019 51 208 0.0 1.7 0.00 0.00 0.00 90 1014.5
20260505075505 52 207 0.0 1.7 0.00 0.00 0.00 90 1014.7
20260505074605 52 207 0.0 1.7 0.00 0.00 0.00 90 1014.7
20260505074504 51 207 0.0 1.7 0.00 0.00 0.00 90 1014.5
20260505073705 52 208 0.9 1.7 0.00 0.00 0.00 90 1014.6
20260505073010 51 209 0.9 1.7 0.00 0.00 0.00 90 1014.3
20260505072805 52 207 0.9 1.7 0.00 0.00 0.00 90 1014.6
20260505071905 52 204 0.0 1.7 0.00 0.00 0.00 89 1014.6
20260505071517 51 206 0.0 1.7 0.00 0.00 0.00 89 1014.4
20260505071026 52 202 0.9 1.7 0.00 0.00 0.00 89 1014.6
20260505070126 52 198 0.9 1.7 0.00 0.00 0.00 89 1014.7
20260505070018 52 198 0.0 1.7 0.00 0.00 0.00 89 1014.5
20260505065205 52 197 0.9 1.7 0.00 0.00 0.00 89 1014.7
20260505064511 52 197 0.9 1.7 0.00 0.00 0.00 89 1014.6
20260505064305 52 196 0.9 1.7 0.00 0.00 0.00 89 1014.7
20260505063405 52 215 0.0 1.7 0.00 0.00 0.00 89 1014.8
20260505063008 52 195 0.0 1.7 0.00 0.00 0.00 89 1014.4
20260505062526 53 257 0.0 1.7 0.00 0.00 0.00 89 1014.7
20260505061605 53 261 0.9 1.7 0.00 0.00 0.00 88 1014.8
20260505061527 52 261 0.0 1.7 0.00 0.00 0.00 88 1014.6
20260505060726 53 261 0.9 1.7 0.00 0.00 0.00 89 1014.8
20260505060104 53 261 0.0 1.7 0.00 0.00 0.00 89 1014.7
20260505055826 53 261 0.9 1.7 0.00 0.00 0.00 88 1014.8
20260505054905 53 258 0.0 1.7 0.00 0.00 0.00 88 1014.8
20260505054506 53 255 0.0 1.7 0.00 0.00 0.00 88 1014.6
20260505054005 54 255 0.9 1.7 0.00 0.00 0.00 87 1014.8
20260505053126 54 255 0.9 1.7 0.00 0.00 0.00 87 1014.8
20260505053008 53 255 0.0 1.7 0.00 0.00 0.00 87 1014.6
20260505052205 54 255 0.0 1.7 0.00 0.00 0.00 87 1014.9
20260505051513 54 255 0.0 1.7 0.00 0.00 0.00 87 1014.6
20260505051305 54 255 0.0 1.7 0.00 0.00 0.00 87 1014.8
20260505050405 55 255 0.0 1.7 0.00 0.00 0.00 87 1014.9
20260505041513 56 255 0.0 0.0 0.00 0.00 0.00 84 1014.6
20260505041005 56 254 0.0 0.9 0.00 0.00 0.00 84 1014.7
20260505040105 57 171 0.0 0.9 0.00 0.00 0.00 83 1014.8
20260505040015 56 172 0.0 0.9 0.00 0.00 0.00 83 1014.7
20260505035206 57 224 0.0 0.9 0.00 0.00 0.00 83 1014.8
20260505034508 57 255 0.0 0.9 0.00 0.00 0.00 83 1014.7
20260505034305 57 255 0.0 0.9 0.00 0.00 0.00 82 1014.9
20260505033406 58 255 0.0 0.9 0.00 0.00 0.00 82 1014.8
20260505033010 57 255 0.0 0.9 0.00 0.00 0.00 82 1014.7
20260505032506 58 255 0.0 0.9 0.00 0.00 0.00 82 1014.9
20260505031605 58 254 0.9 1.7 0.00 0.00 0.00 80 1014.9
20260505031535 58 255 0.0 1.7 0.00 0.00 0.00 80 1014.7
20260505030706 59 254 0.0 0.9 0.00 0.00 0.00 79 1014.9
20260505030104 58 254 0.0 0.9 0.00 0.00 0.00 79 1014.8
20260505025806 59 254 0.0 1.7 0.00 0.00 0.00 79 1014.8
20260505024906 59 254 0.0 1.7 0.00 0.00 0.00 78 1014.7
20260505024519 59 254 0.0 0.0 0.00 0.00 0.00 76 1014.7
20260505024005 59 254 0.0 0.9 0.00 0.00 0.00 74 1014.8
20260505023105 60 254 0.9 1.7 0.00 0.00 0.00 75 1014.7
20260505023015 59 254 0.9 1.7 0.00 0.00 0.00 75 1014.5
20260505022206 60 254 0.0 0.9 0.00 0.00 0.00 74 1014.7
20260505021503 60 254 0.0 1.7 0.00 0.00 0.00 73 1014.5
20260505021306 61 254 0.9 1.7 0.00 0.00 0.00 73 1014.7
20260505020406 61 254 0.9 0.9 0.00 0.00 0.00 73 1014.6
20260505020020 61 254 0.0 0.9 0.00 0.00 0.00 73 1014.4
20260505015506 62 254 0.9 1.7 0.00 0.00 0.00 73 1014.5
20260505014606 62 254 0.0 0.9 0.00 0.00 0.00 72 1014.3
20260505014518 62 254 0.0 0.9 0.00 0.00 0.00 72 1014.1
20260505013706 63 254 0.0 0.9 0.00 0.00 0.00 71 1014.3
20260505013111 63 254 0.0 0.0 0.00 0.00 0.00 71 1013.9
20260505012806 64 254 0.0 0.9 0.00 0.00 0.00 71 1014.2
20260505011906 65 252 0.0 0.9 0.00 0.00 0.00 71 1014.1
20260505011506 65 252 0.0 0.9 0.00 0.00 0.00 70 1013.9
20260505011006 66 0 0.0 0.0 0.00 0.00 0.00 70 1013.9
20260505010106 66 0 0.0 0.0 0.00 0.00 0.00 69 1013.8
20260505010014 66 254 0.0 0.0 0.00 0.00 0.00 69 1013.6
20260505005227 67 253 0.0 0.9 0.00 0.00 0.00 69 1013.9
20260505004602 67 254 0.0 0.9 0.00 0.00 0.00 68 1013.6
20260505004306 68 254 0.0 0.9 0.00 0.00 0.00 68 1013.8
20260505003406 68 254 0.0 0.9 0.00 0.00 0.00 61 1013.7
20260505003007 68 245 0.0 0.9 0.00 0.00 0.00 61 1013.5
20260505002506 69 254 0.0 0.9 0.00 0.00 0.00 63 1013.8
20260505001606 70 254 0.0 1.7 0.00 0.00 0.00 59 1013.7
20260505001512 70 254 0.0 0.9 0.00 0.00 0.00 59 1013.5
20260505000706 71 254 0.0 0.9 0.00 0.00 0.00 58 1013.7
20260505000117 71 254 0.0 1.7 0.00 0.00 0.00 56 1013.5
20260504235806 72 259 0.0 1.7 0.00 0.00 0.00 56 1013.6
20260504234906 73 272 0.0 1.7 0.00 0.00 0.00 56 1013.6
20260504234507 73 261 0.0 1.7 0.00 0.00 0.00 55 1013.4
20260504234006 74 254 0.9 1.7 0.00 0.00 0.00 54 1013.6
20260504233106 76 252 0.0 1.7 0.00 0.00 0.00 51 1013.5
20260504233013 75 252 0.0 1.7 0.00 0.00 0.00 49 1013.3
20260504232206 76 256 0.9 4.3 0.00 0.00 0.00 47 1013.6
20260504231516 77 234 0.9 4.3 0.00 0.00 0.00 47 1013.3
20260504231306 77 240 1.7 6.1 0.00 0.00 0.00 46 1013.6
20260504230427 78 263 1.7 3.5 0.00 0.00 0.00 46 1013.5
20260504230006 78 258 1.7 3.5 0.00 0.00 0.00 45 1013.2
20260504225506 79 278 0.9 6.1 0.00 0.00 0.00 47 1013.5
20260504224606 79 258 0.9 6.1 0.00 0.00 0.00 46 1013.6
20260504224510 79 263 0.9 6.1 0.00 0.00 0.00 46 1013.4
20260504223706 79 225 1.7 4.3 0.00 0.00 0.00 46 1013.6
20260504223010 79 223 0.9 3.5 0.00 0.00 0.00 47 1013.4
20260504222806 79 214 1.7 5.2 0.00 0.00 0.00 46 1013.7
20260504221906 79 233 2.6 7.0 0.00 0.00 0.00 44 1013.7
20260504221515 79 234 1.7 7.0 0.00 0.00 0.00 45 1013.5
20260504221027 79 250 2.6 6.1 0.00 0.00 0.00 45 1013.7
20260504220106 79 275 1.7 6.1 0.00 0.00 0.00 46 1013.7
20260504220006 79 311 0.9 6.1 0.00 0.00 0.00 47 1013.5
20260504215227 79 263 1.7 3.5 0.00 0.00 0.00 47 1013.6
20260504214506 78 232 0.9 6.1 0.00 0.00 0.00 47 1013.5
20260504214306 79 280 1.7 6.1 0.00 0.00 0.00 49 1013.7
20260504213406 78 316 1.7 5.2 0.00 0.00 0.00 46 1013.8
20260504213011 77 5 0.0 1.7 0.00 0.00 0.00 50 1013.6
20260504212506 77 255 1.7 4.3 0.00 0.00 0.00 50 1013.9
20260504211606 78 250 1.7 5.2 0.00 0.00 0.00 50 1013.9
20260504211518 78 136 0.9 5.2 0.00 0.00 0.00 49 1013.8
20260504210706 78 217 0.9 5.2 0.00 0.00 0.00 47 1014.1
20260504210004 78 194 1.7 5.2 0.00 0.00 0.00 45 1014.1
20260504205806 78 214 2.6 5.2 0.00 0.00 0.00 46 1014.2
20260504204906 78 215 2.6 7.8 0.00 0.00 0.00 45 1014.1
20260504204508 78 210 0.0 7.8 0.00 0.00 0.00 45 1014.2
20260504204006 78 216 1.7 7.8 0.00 0.00 0.00 45 1014.3
20260504203106 78 221 2.6 7.8 0.00 0.00 0.00 48 1014.2
20260504203012 77 218 0.9 7.8 0.00 0.00 0.00 48 1014.1
20260504202206 78 207 1.7 7.0 0.00 0.00 0.00 45 1014.4
20260504201514 77 209 0.9 5.2 0.00 0.00 0.00 48 1014.3
20260504201306 77 267 1.7 6.1 0.00 0.00 0.00 46 1014.5
20260504200406 77 277 2.6 7.8 0.00 0.00 0.00 46 1014.6
20260504200020 77 288 3.5 7.8 0.00 0.00 0.00 46 1014.6
20260504195506 77 261 1.7 6.1 0.00 0.00 0.00 47 1014.7
20260504194606 77 141 1.7 7.0 0.00 0.00 0.00 49 1014.9
20260504194509 76 64 1.7 7.0 0.00 0.00 0.00 49 1014.7
20260504193727 76 127 1.7 4.3 0.00 0.00 0.00 51 1015.0
20260504193013 75 223 0.9 3.5 0.00 0.00 0.00 51 1015.0
20260504192806 76 289 1.7 7.0 0.00 0.00 0.00 49 1015.2
20260504191906 77 255 1.7 6.1 0.00 0.00 0.00 49 1015.3
20260504191517 76 239 1.7 7.0 0.00 0.00 0.00 47 1015.3
20260504191006 76 266 2.6 7.8 0.00 0.00 0.00 47 1015.4
20260504190106 76 274 1.7 3.5 0.00 0.00 0.00 48 1015.5
20260504190004 76 274 0.9 3.5 0.00 0.00 0.00 49 1015.4
20260504185227 76 260 2.6 6.1 0.00 0.00 0.00 52 1015.7
20260504184507 75 283 2.6 7.0 0.00 0.00 0.00 51 1015.7
20260504184306 75 218 2.6 7.0 0.00 0.00 0.00 50 1015.7
20260504183406 75 214 2.6 7.0 0.00 0.00 0.00 50 1015.8
20260504183011 75 70 1.7 4.3 0.00 0.00 0.00 48 1015.7
20260504182506 75 230 1.7 5.2 0.00 0.00 0.00 52 1015.9
20260504181606 75 182 0.9 3.5 0.00 0.00 0.00 54 1016.0
20260504181514 75 86 0.0 5.2 0.00 0.00 0.00 52 1015.9
20260504180706 75 240 1.7 6.1 0.00 0.00 0.00 50 1016.1
20260504180015 74 133 0.9 7.0 0.00 0.00 0.00 51 1016.1
20260504175828 74 270 2.6 7.0 0.00 0.00 0.00 51 1016.1
20260504174906 74 261 1.7 7.0 0.00 0.00 0.00 52 1016.4
20260504174604 73 260 0.9 6.1 0.00 0.00 0.00 50 1016.4
20260504174007 73 272 2.6 7.8 0.00 0.00 0.00 52 1016.4
20260504173106 73 269 2.6 7.8 0.00 0.00 0.00 51 1016.6
20260504173005 73 283 1.7 7.0 0.00 0.00 0.00 53 1016.6
20260504172206 73 329 1.7 7.0 0.00 0.00 0.00 52 1016.8
20260504171508 72 89 0.9 7.0 0.00 0.00 0.00 51 1016.9
20260504171306 72 272 1.7 7.0 0.00 0.00 0.00 50 1016.9
20260504170406 72 268 2.6 8.7 0.00 0.00 0.00 51 1017.0
20260504160107 70 264 2.6 9.6 0.00 0.00 0.00 55 1017.7